Skip Navigation LinksHome page > Weather > Current weather Skip Navigation Links

Current Weather

Chicago O'Hare Intl, Chicago

For information only: do not use for flight planning or navigation.
Latest weather
Observation time Wednesday, October 26, 2016 7:51 AM CDT
Local time Wednesday, October 26, 2016 8:07 AM CDT
Flight conditions Visual Meteorological Conditions
Wind direction Southeast (130°)
Wind speed 24 mph
Wind gusting to 29 mph
Peak wind speed 32 mph, 7:37 AM
Peak wind direction Southeast (130°)
Visibility 10 mi.
Sky condition
Ceiling 5,000 ft. overcast
Cloud layer few clouds 2,400 ft.
Cloud layer overcast 5,000 ft.
Temperature 47°F
Dewpoint 41°F
Altimeter 30.19 in.Hg
Derived measurements
Relative humidity 80%
Wind chill 39°F
Density altitude -317 ft.
Sea-level pressure 30.19 in.Hg
Automated weather observing station with precipitation discriminator.
METAR KORD 261251Z 13021G25KT 10SM FEW024 OVC050 08/05 A3019 RMK AO2 PK WND 13028/1237 SLP225 T00830050


Location code

InnerDrive.Weather 4.0.5722.1 Release CLR 4.0.30319.34209
Copyright ©2015 Inner Drive Technology. All rights reserved. Portions Copyright ©1986-2015 David Braverman.

Find weather

Site navigation

Skip Navigation Links

Place info

Page info

PayPal - The safer, easier way to pay online!

Return home.

Copyright ©2016 Inner Drive Technology. Purveyors of fine, hand-crafted computer software. Page printed 2016-10-26T13:07:23 UTC.